Lyndeborough, New Hampshire
Current Conditions -  °F | °C
As of 8:52 PM on Saturday 25 Oct 2014 (Local Time) from KAFN Reporting Station
Few Clouds Few Clouds  
Wind Chill: 45°   Ceiling: Unl
Heat Index: 45°   Visibility: 9mi
Dew Point: 43°   Wind: 3mph
Humidity: 93%   Direction: 190°S
Pressure: 29.55"   Gusts: NA
Location:  42.91°N, 71.77°W
Report Text: KAFN 260052Z AUTO 19003KT 9SM FEW090 07/06 A2955 RMK AO2 SLP016 T00720061
Loading
Personal Weather Stations






























Interactive Weather Map
Tropical Storm Tracking
New forecast layout! Learn more

10-Day Weather Forecast

Advertisements
Track Severe Weather on mobile